Time;durP1;ratioP1;P1;durP2;ratioP2;P2;SDS_P1;SDS_P2;PMS_P1;PMS_P2;Temp;Humidity;BMP_temperature;BMP_pressure;BME280_temperature;BME280_humidity;BME280_pressure;Samples;Min_cycle;Max_cycle;Signal;HPM_P1;HPM_P2
2024/01/28 00:00:41;;;;;;;11.27;4.90;;;2.80;99.90;;;;;;5075370;28;20059;-50
2024/01/28 00:03:07;;;;;;;11.70;4.57;;;2.90;99.90;;;;;;5075552;28;20044;-51
2024/01/28 00:05:32;;;;;;;12.67;4.97;;;2.80;99.90;;;;;;5075599;28;20036;-52
2024/01/28 00:08:01;;;;;;;7.97;4.17;;;2.70;99.90;;;;;;5074482;28;20391;-52
2024/01/28 00:10:27;;;;;;;13.48;5.03;;;2.70;99.90;;;;;;5075066;28;20392;-52
2024/01/28 00:12:52;;;;;;;9.90;3.97;;;2.70;99.90;;;;;;5074051;28;20101;-52
2024/01/28 00:15:18;;;;;;;10.17;4.47;;;2.70;99.90;;;;;;5075304;28;20079;-49
2024/01/28 00:17:44;;;;;;;14.80;4.43;;;2.60;99.90;;;;;;5075392;28;20040;-51
2024/01/28 00:20:10;;;;;;;12.23;4.67;;;2.50;99.90;;;;;;5075269;28;20082;-50
2024/01/28 00:22:36;;;;;;;9.85;5.15;;;2.40;99.90;;;;;;5073926;28;20045;-50
2024/01/28 00:25:01;;;;;;;12.07;4.53;;;2.40;99.90;;;;;;5075169;28;20101;-52
2024/01/28 00:27:27;;;;;;;9.97;4.77;;;2.30;99.90;;;;;;5075146;28;20480;-49
2024/01/28 00:29:53;;;;;;;11.90;4.70;;;2.30;99.90;;;;;;5073744;28;20089;-50
2024/01/28 00:32:19;;;;;;;10.23;4.40;;;2.30;99.90;;;;;;5074765;28;20130;-49
2024/01/28 00:34:45;;;;;;;;;;;2.30;99.90;;;;;;5075009;28;20051;-49
2024/01/28 00:37:11;;;;;;;13.00;4.40;;;2.30;99.90;;;;;;5074627;28;19920;-50
2024/01/28 00:39:36;;;;;;;10.50;4.60;;;2.30;99.90;;;;;;5074824;28;20098;-50
2024/01/28 00:42:04;;;;;;;10.35;4.78;;;2.40;99.90;;;;;;5074780;28;20467;-49
2024/01/28 00:44:30;;;;;;;14.57;5.18;;;2.40;99.90;;;;;;5074417;28;20054;-51
2024/01/28 00:46:57;;;;;;;12.98;4.53;;;2.40;99.90;;;;;;5073450;28;20098;-51
2024/01/28 00:49:29;;;;;;;;;;;2.50;99.90;;;;;;5074160;28;20055;-52
2024/01/28 00:51:59;;;;;;;12.38;4.80;;;2.50;99.90;;;;;;5074585;28;19963;-50
2024/01/28 00:54:25;;;;;;;13.45;4.43;;;2.50;99.90;;;;;;5074457;28;20127;-51
2024/01/28 00:56:52;;;;;;;9.88;4.55;;;2.40;99.90;;;;;;5074273;28;20085;-51
2024/01/28 00:59:21;;;;;;;13.30;4.68;;;2.50;99.90;;;;;;5074388;28;20076;-52
2024/01/28 01:01:47;;;;;;;9.88;4.30;;;2.50;99.90;;;;;;5074511;28;20075;-51
2024/01/28 01:04:12;;;;;;;9.43;4.40;;;2.50;99.90;;;;;;5074222;28;20120;-52
2024/01/28 01:06:41;;;;;;;10.80;4.10;;;2.50;99.90;;;;;;5074162;28;20391;-50
2024/01/28 01:09:10;;;;;;;11.93;4.65;;;2.50;99.90;;;;;;5074028;28;20045;-49
2024/01/28 01:11:35;;;;;;;10.98;4.50;;;2.50;99.90;;;;;;5074082;28;20106;-52
2024/01/28 01:14:01;;;;;;;9.10;4.70;;;2.50;99.90;;;;;;5074036;28;20052;-51
2024/01/28 01:16:27;;;;;;;10.20;4.03;;;2.50;99.90;;;;;;5073205;28;20059;-51
2024/01/28 01:18:53;;;;;;;10.33;4.40;;;2.50;99.90;;;;;;5073876;28;20086;-51
2024/01/28 01:21:19;;;;;;;11.35;4.10;;;2.50;99.90;;;;;;5073189;28;20040;-51
2024/01/28 01:23:45;;;;;;;12.40;4.50;;;2.50;99.90;;;;;;5073878;28;20097;-50
2024/01/28 01:26:11;;;;;;;8.30;3.97;;;2.50;99.90;;;;;;5073918;28;20059;-49
2024/01/28 01:28:36;;;;;;;10.43;4.35;;;2.50;99.90;;;;;;5073872;28;20048;-49
2024/01/28 01:31:03;;;;;;;7.77;3.90;;;2.50;99.90;;;;;;5074275;28;20049;-49
2024/01/28 01:33:29;;;;;;;11.02;4.97;;;2.50;99.90;;;;;;5073622;28;20052;-49
2024/01/28 01:35:55;;;;;;;12.17;4.70;;;2.50;99.90;;;;;;5073738;28;20555;-48
2024/01/28 01:38:21;;;;;;;8.25;3.63;;;2.50;99.90;;;;;;5072734;28;20045;-49
2024/01/28 01:40:47;;;;;;;11.52;3.80;;;2.50;99.90;;;;;;5073638;28;20044;-50
2024/01/28 01:43:13;;;;;;;10.03;4.20;;;2.50;99.90;;;;;;5073778;28;20102;-48
2024/01/28 01:45:40;;;;;;;10.57;3.77;;;2.50;99.90;;;;;;5073785;28;20087;-49
2024/01/28 01:48:12;;;;;;;8.70;3.88;;;2.60;99.90;;;;;;5073730;28;20044;-50
2024/01/28 01:50:41;;;;;;;9.57;3.90;;;2.60;99.90;;;;;;5072605;28;20131;-51
2024/01/28 01:53:09;;;;;;;8.27;3.72;;;2.60;99.90;;;;;;5072670;28;20049;-52
2024/01/28 01:55:37;;;;;;;11.68;4.25;;;2.60;99.90;;;;;;5073638;28;20526;-49
2024/01/28 01:58:04;;;;;;;13.23;4.65;;;2.50;99.90;;;;;;5073653;28;20082;-50
2024/01/28 02:00:31;;;;;;;11.98;4.00;;;2.60;99.90;;;;;;5073638;28;20403;-50
2024/01/28 02:02:56;;;;;;;9.07;3.80;;;2.60;99.90;;;;;;5073558;28;20519;-49
2024/01/28 02:05:22;;;;;;;8.67;4.07;;;2.60;99.90;;;;;;5073616;28;20086;-49
2024/01/28 02:07:49;;;;;;;8.53;3.83;;;2.60;99.90;;;;;;5073313;28;20044;-50
2024/01/28 02:10:15;;;;;;;8.80;4.50;;;2.60;99.90;;;;;;5073537;28;20048;-50
2024/01/28 02:12:45;;;;;;;11.63;4.63;;;2.60;99.90;;;;;;5073491;28;20048;-50
2024/01/28 02:15:11;;;;;;;11.18;4.57;;;2.60;99.90;;;;;;5073446;28;20306;-49
2024/01/28 02:17:37;;;;;;;9.80;3.95;;;2.60;99.90;;;;;;5073384;28;20106;-50
2024/01/28 02:20:04;;;;;;;7.93;4.10;;;2.70;99.90;;;;;;5073314;28;20041;-49
2024/01/28 02:22:29;;;;;;;8.30;3.70;;;2.70;99.90;;;;;;5073208;28;20068;-49
2024/01/28 02:24:57;;;;;;;7.43;3.10;;;2.70;99.90;;;;;;5073578;28;20476;-50
2024/01/28 02:27:23;;;;;;;9.60;3.47;;;2.70;99.90;;;;;;5073457;28;20052;-51
2024/01/28 02:29:48;;;;;;;7.63;3.45;;;2.70;99.90;;;;;;5072323;28;20128;-49
2024/01/28 02:32:17;;;;;;;12.47;3.67;;;2.60;99.90;;;;;;5073175;28;20492;-50
2024/01/28 02:34:43;;;;;;;9.30;3.58;;;2.60;99.90;;;;;;5073154;28;20053;-50
2024/01/28 02:37:11;;;;;;;10.27;3.72;;;2.50;99.90;;;;;;5071982;28;20052;-50
2024/01/28 02:39:38;;;;;;;10.00;3.95;;;2.50;99.90;;;;;;5073481;28;20104;-49
2024/01/28 02:42:04;;;;;;;8.90;3.47;;;2.40;99.90;;;;;;5073589;28;20048;-49
2024/01/28 02:44:30;;;;;;;9.98;3.75;;;2.40;99.90;;;;;;5073106;28;20114;-50
2024/01/28 02:46:56;;;;;;;9.10;3.87;;;2.30;99.90;;;;;;5072357;28;20048;-50
2024/01/28 02:49:23;;;;;;;11.23;3.87;;;2.30;99.90;;;;;;5073120;28;20040;-49
2024/01/28 02:51:50;;;;;;;9.55;3.78;;;2.30;99.90;;;;;;5073302;28;20044;-49
2024/01/28 02:54:16;;;;;;;9.00;3.53;;;2.20;99.90;;;;;;5073128;28;20504;-49
2024/01/28 02:56:42;;;;;;;12.00;3.97;;;2.20;99.90;;;;;;5073103;28;20084;-50
2024/01/28 02:59:08;;;;;;;13.50;4.30;;;2.40;99.90;;;;;;5072901;28;20051;-49
2024/01/28 03:01:33;;;;;;;12.17;4.27;;;2.20;99.90;;;;;;5071761;28;20040;-49
2024/01/28 03:03:59;;;;;;;12.90;4.40;;;2.20;99.90;;;;;;5072924;28;20040;-49
2024/01/28 03:06:25;;;;;;;11.17;4.77;;;2.20;99.90;;;;;;5072924;28;20131;-49
2024/01/28 03:08:50;;;;;;;10.60;5.13;;;2.10;99.90;;;;;;5072862;28;20127;-49
2024/01/28 03:11:16;;;;;;;10.15;4.72;;;2.10;99.90;;;;;;5073159;28;20040;-49
2024/01/28 03:13:41;;;;;;;9.00;4.90;;;2.10;99.90;;;;;;5076652;28;20476;-49
2024/01/28 03:16:07;;;;;;;15.73;6.57;;;2.10;99.90;;;;;;5076476;28;20508;-49
2024/01/28 03:18:33;;;;;;;9.43;4.67;;;2.10;99.90;;;;;;5058828;28;20472;-49
2024/01/28 03:20:58;;;;;;;13.00;5.53;;;2.10;99.90;;;;;;5076089;28;20048;-49
2024/01/28 03:23:24;;;;;;;11.43;4.93;;;2.10;99.90;;;;;;5076296;28;20391;-50
2024/01/28 03:25:50;;;;;;;14.40;5.53;;;2.10;99.90;;;;;;5076359;28;20107;-53
2024/01/28 03:28:15;;;;;;;12.60;4.80;;;2.10;99.90;;;;;;5074993;28;20496;-52
2024/01/28 03:30:41;;;;;;;13.90;5.63;;;2.20;99.90;;;;;;5074936;28;20472;-52
2024/01/28 03:33:07;;;;;;;15.13;5.47;;;2.20;99.90;;;;;;5076423;28;20426;-50
2024/01/28 03:35:32;;;;;;;11.33;4.33;;;2.20;99.90;;;;;;5075830;28;20460;-51
2024/01/28 03:37:58;;;;;;;10.00;5.13;;;2.20;99.90;;;;;;5076750;28;20106;-50
2024/01/28 03:40:26;;;;;;;10.07;5.23;;;2.20;99.90;;;;;;5076026;28;20086;-53
2024/01/28 03:42:52;;;;;;;11.40;5.45;;;2.30;99.90;;;;;;5075949;28;20329;-49
2024/01/28 03:45:18;;;;;;;11.07;5.23;;;2.30;99.90;;;;;;5075931;28;20140;-51
2024/01/28 03:47:43;;;;;;;14.13;6.60;;;2.40;99.90;;;;;;5075732;28;20283;-51
2024/01/28 03:50:10;;;;;;;13.38;5.85;;;2.40;99.90;;;;;;5075511;28;20043;-52
2024/01/28 03:52:35;;;;;;;12.15;5.38;;;2.40;99.90;;;;;;5075748;28;20056;-50
2024/01/28 03:55:01;;;;;;;12.50;5.30;;;2.40;99.90;;;;;;5075820;28;20044;-50
2024/01/28 03:57:27;;;;;;;11.82;5.43;;;2.30;99.90;;;;;;5075059;28;20056;-51
2024/01/28 03:59:53;;;;;;;12.20;4.65;;;2.30;99.90;;;;;;5075824;28;20186;-50
2024/01/28 04:02:19;;;;;;;12.15;5.35;;;2.30;99.90;;;;;;5075699;28;20127;-48
2024/01/28 04:04:44;;;;;;;13.73;5.03;;;2.40;99.90;;;;;;5075565;28;20181;-49
2024/01/28 04:07:10;;;;;;;13.25;5.78;;;2.40;99.90;;;;;;5075490;28;20126;-49
2024/01/28 04:09:37;;;;;;;12.13;5.70;;;2.30;99.90;;;;;;5075469;28;20109;-49
2024/01/28 04:12:04;;;;;;;9.90;5.00;;;2.40;99.90;;;;;;5075334;28;20087;-49
2024/01/28 04:14:30;;;;;;;14.68;4.45;;;2.40;99.90;;;;;;5074185;28;20075;-49
2024/01/28 04:16:56;;;;;;;9.65;5.35;;;2.30;99.90;;;;;;5075179;28;20044;-49
2024/01/28 04:19:22;;;;;;;13.77;6.20;;;2.30;99.90;;;;;;5075116;28;20047;-49
2024/01/28 04:21:48;;;;;;;16.70;5.93;;;2.30;99.90;;;;;;5075823;28;20090;-49
2024/01/28 04:24:14;;;;;;;11.50;5.10;;;2.30;99.90;;;;;;5072843;28;20468;-49
2024/01/28 04:26:40;;;;;;;11.18;4.97;;;2.20;99.90;;;;;;5075152;28;20044;-49
2024/01/28 04:29:06;;;;;;;11.37;5.60;;;2.20;99.90;;;;;;5074939;28;20037;-49
2024/01/28 04:31:31;;;;;;;13.23;5.68;;;2.10;99.90;;;;;;5073511;28;20427;-48
2024/01/28 04:34:00;;;;;;;14.27;4.90;;;2.10;99.90;;;;;;5074960;28;20117;-49
2024/01/28 04:36:26;;;;;;;12.18;4.72;;;2.10;99.90;;;;;;5075042;28;20152;-50
2024/01/28 04:38:52;;;;;;;14.35;5.20;;;2.20;99.90;;;;;;5074772;28;20539;-51
2024/01/28 04:41:17;;;;;;;12.97;5.17;;;2.10;99.90;;;;;;5074870;28;20044;-50
2024/01/28 04:43:43;;;;;;;12.88;5.80;;;2.10;99.90;;;;;;5074736;28;20037;-51
2024/01/28 04:46:09;;;;;;;11.32;5.07;;;2.00;99.90;;;;;;5073436;28;20044;-52
2024/01/28 04:48:35;;;;;;;9.95;5.45;;;2.00;99.90;;;;;;5074542;28;20060;-51
2024/01/28 04:51:01;;;;;;;10.15;5.35;;;2.00;99.90;;;;;;5074788;28;20048;-53
2024/01/28 04:53:27;;;;;;;12.80;5.50;;;2.00;99.90;;;;;;5074334;28;20400;-52
2024/01/28 04:55:52;;;;;;;12.13;5.35;;;1.90;99.90;;;;;;5074502;28;20443;-49
2024/01/28 04:58:18;;;;;;;10.80;5.28;;;1.90;99.90;;;;;;5074165;28;20131;-54
2024/01/28 05:00:44;;;;;;;12.67;5.63;;;1.80;99.90;;;;;;5074146;28;20036;-52
2024/01/28 05:03:09;;;;;;;14.20;5.95;;;1.80;99.90;;;;;;5072943;28;20400;-49
2024/01/28 05:05:36;;;;;;;14.88;5.57;;;1.80;99.90;;;;;;5074381;28;20048;-49
2024/01/28 05:08:01;;;;;;;12.50;5.88;;;1.70;99.90;;;;;;5074154;28;20403;-49
2024/01/28 05:10:27;;;;;;;11.00;5.85;;;1.70;99.90;;;;;;5073328;28;20140;-49
2024/01/28 05:12:53;;;;;;;14.60;6.78;;;1.70;99.90;;;;;;5073336;28;20049;-48
2024/01/28 05:15:19;;;;;;;14.57;6.03;;;1.70;99.90;;;;;;5074130;28;20506;-49
2024/01/28 05:17:44;;;;;;;14.27;6.20;;;1.70;99.90;;;;;;5074071;28;20044;-49
2024/01/28 05:20:11;;;;;;;14.10;6.40;;;1.70;99.90;;;;;;5073333;28;20052;-48
2024/01/28 05:22:37;;;;;;;13.95;6.30;;;1.70;99.90;;;;;;5074144;28;20056;-48
2024/01/28 05:25:03;;;;;;;11.23;5.53;;;1.70;99.90;;;;;;5074061;28;20048;-48
2024/01/28 05:27:29;;;;;;;15.05;6.05;;;1.70;99.90;;;;;;5073972;28;20048;-49
2024/01/28 05:29:57;;;;;;;13.67;6.33;;;1.60;99.90;;;;;;5073774;28;20373;-49
2024/01/28 05:32:22;;;;;;;13.32;5.93;;;1.60;99.90;;;;;;5073529;28;20511;-49
2024/01/28 05:34:48;;;;;;;12.63;6.15;;;1.60;99.90;;;;;;5073815;28;20099;-48
2024/01/28 05:37:16;;;;;;;12.73;5.80;;;1.60;99.90;;;;;;5073882;28;20080;-49
2024/01/28 05:39:42;;;;;;;10.90;5.75;;;1.50;99.90;;;;;;5073687;28;20468;-48
2024/01/28 05:42:08;;;;;;;12.45;5.53;;;1.60;99.90;;;;;;5073871;28;20056;-50
2024/01/28 05:44:34;;;;;;;14.20;6.07;;;1.60;99.90;;;;;;5073791;28;20090;-49
2024/01/28 05:46:59;;;;;;;13.17;5.90;;;1.50;99.90;;;;;;5073678;28;20052;-49
2024/01/28 05:49:25;;;;;;;11.70;5.88;;;1.60;99.90;;;;;;5072684;28;20494;-51
2024/01/28 05:51:51;;;;;;;14.23;5.75;;;1.60;99.90;;;;;;5072495;28;20511;-48
2024/01/28 05:54:16;;;;;;;13.65;5.65;;;1.60;99.90;;;;;;5074072;28;20044;-48
2024/01/28 05:56:43;;;;;;;14.88;6.50;;;1.50;99.90;;;;;;5073900;28;20468;-49
2024/01/28 05:59:08;;;;;;;13.80;5.50;;;1.50;99.90;;;;;;5073543;28;20132;-48
2024/01/28 06:01:34;;;;;;;16.93;6.23;;;1.50;99.90;;;;;;5073464;28;20083;-53
2024/01/28 06:04:00;;;;;;;11.93;5.77;;;1.50;99.90;;;;;;5073672;28;20040;-51
2024/01/28 06:06:25;;;;;;;14.23;5.87;;;1.50;99.90;;;;;;5072656;28;20482;-53
2024/01/28 06:08:51;;;;;;;14.88;6.22;;;1.50;99.90;;;;;;5073560;28;20063;-52
2024/01/28 06:11:17;;;;;;;11.65;5.85;;;1.50;99.90;;;;;;5073412;28;20056;-52
2024/01/28 06:13:42;;;;;;;13.30;5.30;;;1.50;99.90;;;;;;5073319;28;20055;-50
2024/01/28 06:16:08;;;;;;;12.25;5.50;;;1.50;99.90;;;;;;5073192;28;20051;-51
2024/01/28 06:18:41;;;;;;;12.52;6.22;;;1.50;99.90;;;;;;5073545;28;20044;-52
2024/01/28 06:21:07;;;;;;;11.88;5.68;;;1.40;99.90;;;;;;5073789;28;20057;-51
2024/01/28 06:23:32;;;;;;;9.77;5.60;;;1.50;99.90;;;;;;5073406;28;20097;-51
2024/01/28 06:25:58;;;;;;;10.93;5.50;;;1.30;99.90;;;;;;5073439;28;20041;-52
2024/01/28 06:28:23;;;;;;;9.80;5.07;;;1.40;99.90;;;;;;5073327;28;20047;-50
2024/01/28 06:30:49;;;;;;;12.55;5.72;;;1.40;99.90;;;;;;5073103;28;20059;-49
2024/01/28 06:33:16;;;;;;;12.25;6.10;;;1.30;99.90;;;;;;5073219;28;20048;-49
2024/01/28 06:35:41;;;;;;;9.65;5.57;;;1.30;99.90;;;;;;5073458;28;20182;-50
2024/01/28 06:38:07;;;;;;;15.07;6.07;;;1.30;99.90;;;;;;5073286;28;20127;-50
2024/01/28 06:40:33;;;;;;;13.05;5.85;;;1.30;99.90;;;;;;5073270;28;20137;-49
2024/01/28 06:42:58;;;;;;;12.10;5.50;;;1.20;99.90;;;;;;5072022;28;20049;-48
2024/01/28 06:45:24;;;;;;;13.65;5.85;;;1.20;99.90;;;;;;5073108;28;20049;-48
2024/01/28 06:47:50;;;;;;;13.82;6.22;;;1.20;99.90;;;;;;5075658;28;20053;-49
2024/01/28 06:50:16;;;;;;;13.67;6.00;;;1.10;99.90;;;;;;5075805;28;20086;-50
2024/01/28 06:52:42;;;;;;;11.13;5.80;;;1.10;99.90;;;;;;5076766;28;20283;-48
2024/01/28 06:55:08;;;;;;;16.33;5.72;;;1.10;99.90;;;;;;5076852;28;20087;-49
2024/01/28 06:57:34;;;;;;;12.75;6.03;;;1.10;99.90;;;;;;5076636;28;20131;-49
2024/01/28 07:00:00;;;;;;;8.60;5.03;;;1.10;99.90;;;;;;5059060;28;20507;-48
2024/01/28 07:02:25;;;;;;;11.10;5.70;;;1.00;99.90;;;;;;5076673;28;20076;-48
2024/01/28 07:04:51;;;;;;;14.80;6.00;;;1.00;99.90;;;;;;5076961;28;20511;-48
2024/01/28 07:07:18;;;;;;;11.03;5.93;;;1.00;99.90;;;;;;5075447;28;20080;-48
2024/01/28 07:09:44;;;;;;;11.25;5.70;;;1.00;99.90;;;;;;5076412;28;20098;-49
2024/01/28 07:12:09;;;;;;;11.50;5.30;;;1.00;99.90;;;;;;5075539;28;20495;-48
2024/01/28 07:14:35;;;;;;;10.32;5.55;;;1.00;99.90;;;;;;5076216;28;20274;-48
2024/01/28 07:17:01;;;;;;;14.70;6.50;;;1.00;99.90;;;;;;5076512;28;20044;-48
2024/01/28 07:19:26;;;;;;;11.97;6.00;;;1.00;99.90;;;;;;5076428;28;20048;-48
2024/01/28 07:21:52;;;;;;;14.60;6.03;;;1.00;99.90;;;;;;5076378;28;20141;-48
2024/01/28 07:24:18;;;;;;;12.07;5.18;;;0.90;99.90;;;;;;5076316;28;20128;-49
2024/01/28 07:26:46;;;;;;;11.23;6.32;;;0.90;99.90;;;;;;5075850;28;20071;-48
2024/01/28 07:29:11;;;;;;;12.82;6.20;;;0.90;99.90;;;;;;5074952;28;20054;-48
2024/01/28 07:31:38;;;;;;;13.43;5.75;;;0.90;99.90;;;;;;5075947;28;20041;-49
2024/01/28 07:34:04;;;;;;;12.13;5.50;;;0.90;99.90;;;;;;5076381;28;20048;-49
2024/01/28 07:36:33;;;;;;;10.90;5.97;;;0.90;99.90;;;;;;5076438;28;20122;-48
2024/01/28 07:38:58;;;;;;;10.38;6.00;;;0.90;99.90;;;;;;5075963;28;20044;-48
2024/01/28 07:41:24;;;;;;;12.68;6.18;;;0.90;99.90;;;;;;5076032;28;20487;-49
2024/01/28 07:43:50;;;;;;;12.52;5.75;;;0.90;99.90;;;;;;5075733;28;20093;-48
2024/01/28 07:46:16;;;;;;;11.50;5.70;;;0.90;99.90;;;;;;5075966;28;20052;-48
2024/01/28 07:48:42;;;;;;;13.27;6.28;;;0.90;99.90;;;;;;5076269;28;20484;-49
2024/01/28 07:51:08;;;;;;;10.93;6.07;;;0.90;99.90;;;;;;5074661;28;20040;-48
2024/01/28 07:53:34;;;;;;;11.50;6.05;;;1.00;99.90;;;;;;5075948;28;20059;-48
2024/01/28 07:56:02;;;;;;;15.90;6.87;;;0.90;99.90;;;;;;5074814;28;20060;-48
2024/01/28 07:58:28;;;;;;;11.52;5.80;;;1.00;99.90;;;;;;5075467;28;20506;-48
2024/01/28 08:00:55;;;;;;;17.13;6.37;;;1.00;99.90;;;;;;5074474;28;20403;-49
2024/01/28 08:03:21;;;;;;;14.68;6.00;;;1.00;99.90;;;;;;5075621;28;20283;-49
2024/01/28 08:05:47;;;;;;;12.95;6.20;;;1.10;99.90;;;;;;5075472;28;20135;-48
2024/01/28 08:08:13;;;;;;;10.70;5.83;;;1.10;99.90;;;;;;5075532;28;20131;-49
2024/01/28 08:10:39;;;;;;;14.73;5.95;;;1.10;99.90;;;;;;5074071;28;20461;-48
2024/01/28 08:13:04;;;;;;;10.85;5.85;;;1.10;99.90;;;;;;5057612;28;20147;-48
2024/01/28 08:15:30;;;;;;;11.27;5.67;;;1.10;99.90;;;;;;5074929;28;20049;-49
2024/01/28 08:17:56;;;;;;;10.70;5.37;;;1.20;99.90;;;;;;5075250;28;20051;-48
2024/01/28 08:20:22;;;;;;;12.35;5.72;;;1.20;99.90;;;;;;5075308;28;20036;-49
2024/01/28 08:22:47;;;;;;;13.70;6.47;;;1.20;99.90;;;;;;5075255;28;20048;-48
2024/01/28 08:25:14;;;;;;;12.60;5.60;;;1.20;99.90;;;;;;5075065;28;20048;-49
2024/01/28 08:27:40;;;;;;;12.60;5.95;;;1.20;99.90;;;;;;5073903;28;20051;-48
2024/01/28 08:30:07;;;;;;;12.25;5.72;;;1.30;99.90;;;;;;5074941;28;20040;-48
2024/01/28 08:32:34;;;;;;;13.38;6.13;;;1.20;99.90;;;;;;5074601;28;20466;-48
2024/01/28 08:34:59;;;;;;;15.20;6.10;;;1.20;99.90;;;;;;5074893;28;20071;-48
2024/01/28 08:37:25;;;;;;;11.55;5.43;;;1.30;99.90;;;;;;5073591;28;20766;-48
2024/01/28 08:39:51;;;;;;;12.97;6.23;;;1.20;99.90;;;;;;5073555;28;20480;-48
2024/01/28 08:42:18;;;;;;;12.13;5.63;;;1.20;99.90;;;;;;5073631;28;20051;-49
2024/01/28 08:44:45;;;;;;;12.90;5.63;;;1.20;99.90;;;;;;5074796;28;20055;-52
2024/01/28 08:47:11;;;;;;;10.45;5.75;;;1.20;99.90;;;;;;5074754;28;20462;-49
2024/01/28 08:49:36;;;;;;;9.67;5.07;;;1.20;99.90;;;;;;5074501;28;20132;-51
2024/01/28 08:52:02;;;;;;;11.02;5.50;;;1.20;99.90;;;;;;5074487;28;20080;-52
2024/01/28 08:54:30;;;;;;;14.07;5.97;;;1.30;99.90;;;;;;5074368;28;20487;-51
2024/01/28 08:56:56;;;;;;;10.90;5.60;;;1.30;99.90;;;;;;5074507;28;20126;-51
2024/01/28 08:59:22;;;;;;;15.35;6.47;;;1.40;99.90;;;;;;5057190;28;20136;-50
2024/01/28 09:01:49;;;;;;;11.57;5.10;;;1.50;99.90;;;;;;5074497;28;20131;-51
2024/01/28 09:04:15;;;;;;;12.98;5.50;;;1.50;99.90;;;;;;5074390;28;20091;-51
2024/01/28 09:06:41;;;;;;;9.80;4.70;;;1.60;99.90;;;;;;5074303;28;20040;-51
2024/01/28 09:09:08;;;;;;;12.70;5.20;;;1.70;99.90;;;;;;5073662;28;20106;-50
2024/01/28 09:11:37;;;;;;;;;;;1.70;99.90;;;;;;5074377;28;20052;-50
2024/01/28 09:14:03;;;;;;;12.73;5.20;;;1.70;99.90;;;;;;5074655;28;20108;-49
2024/01/28 09:16:29;;;;;;;12.02;4.88;;;1.80;99.90;;;;;;5072984;28;20084;-49
2024/01/28 09:18:54;;;;;;;10.45;4.55;;;1.80;99.90;;;;;;5073955;28;20084;-51
2024/01/28 09:21:20;;;;;;;12.23;4.85;;;1.80;99.90;;;;;;5074078;28;20041;-48
2024/01/28 09:23:46;;;;;;;9.70;4.63;;;1.90;99.90;;;;;;5073832;28;20050;-52
2024/01/28 09:26:11;;;;;;;9.47;4.90;;;2.00;99.90;;;;;;5074104;28;20047;-50
2024/01/28 09:28:37;;;;;;;10.20;4.70;;;2.00;99.90;;;;;;5074000;28;20135;-48
2024/01/28 09:31:09;;;;;;;10.80;5.07;;;2.10;99.90;;;;;;5074014;28;20460;-50
2024/01/28 09:33:35;;;;;;;11.38;4.90;;;2.10;99.90;;;;;;5073669;28;20056;-52
2024/01/28 09:36:01;;;;;;;10.25;4.22;;;2.20;99.90;;;;;;5073852;28;20052;-48
2024/01/28 09:38:27;;;;;;;8.85;4.47;;;2.20;99.90;;;;;;5073731;28;20411;-50
2024/01/28 09:40:53;;;;;;;10.03;4.37;;;2.30;99.90;;;;;;5074155;28;20040;-50
2024/01/28 09:43:31;;;;;;;8.83;4.47;;;2.30;99.90;;;;;;5073783;28;20395;-49
2024/01/28 09:45:58;;;;;;;8.75;4.30;;;2.40;99.90;;;;;;5073918;28;20415;-51
2024/01/28 09:48:23;;;;;;;10.15;4.03;;;2.50;99.90;;;;;;5072780;28;20060;-48
2024/01/28 09:50:49;;;;;;;8.83;3.70;;;2.60;99.90;;;;;;5073733;28;20041;-47
2024/01/28 09:53:16;;;;;;;13.43;4.65;;;2.70;99.90;;;;;;5073492;28;20468;-48
2024/01/28 09:55:42;;;;;;;12.43;4.10;;;2.80;99.90;;;;;;5073743;28;20044;-48
2024/01/28 09:58:09;;;;;;;11.07;4.38;;;2.80;99.90;;;;;;5072514;28;20045;-48
2024/01/28 10:00:36;;;;;;;9.18;4.15;;;2.90;99.90;;;;;;5072972;28;20052;-48
2024/01/28 10:03:03;;;;;;;9.25;4.35;;;2.90;99.90;;;;;;5073494;28;20121;-48
2024/01/28 10:05:30;;;;;;;11.52;4.28;;;2.90;99.90;;;;;;5073365;28;20048;-47
2024/01/28 10:08:03;;;;;;;10.13;3.83;;;3.00;99.90;;;;;;5073627;28;20042;-47
2024/01/28 10:10:32;;;;;;;9.40;4.05;;;3.00;99.90;;;;;;5073491;28;20537;-48
2024/01/28 10:12:57;;;;;;;9.75;3.90;;;3.00;99.90;;;;;;5073491;28;20063;-48
2024/01/28 10:15:28;;;;;;;9.65;3.90;;;2.90;99.90;;;;;;5073493;28;20048;-48
2024/01/28 10:17:53;;;;;;;7.93;3.30;;;3.00;99.90;;;;;;5073413;28;20048;-47
2024/01/28 10:20:21;;;;;;;8.00;3.83;;;3.00;99.90;;;;;;5073684;28;20041;-48
2024/01/28 10:22:48;;;;;;;7.93;3.40;;;3.00;99.90;;;;;;5076578;28;20059;-48
2024/01/28 10:25:18;;;;;;;8.27;3.58;;;3.00;99.90;;;;;;5077491;28;20127;-47
2024/01/28 10:27:45;;;;;;;8.52;3.15;;;2.90;99.90;;;;;;5077563;28;20416;-48
2024/01/28 10:30:11;;;;;;;;;;;2.90;99.90;;;;;;5077848;28;20036;-47
2024/01/28 10:32:41;;;;;;;10.65;3.40;;;2.90;99.90;;;;;;5077129;28;19947;-38
2024/01/28 10:35:16;;;;;;;7.07;3.33;;;2.90;99.90;;;;;;5077026;28;20528;-38
2024/01/28 10:37:42;;;;;;;8.95;2.92;;;2.90;99.90;;;;;;5077278;28;20171;-38
2024/01/28 10:40:08;;;;;;;9.68;3.20;;;3.00;99.90;;;;;;5077172;28;20505;-38
2024/01/28 10:42:35;;;;;;;;;;;3.20;99.90;;;;;;5077538;28;20048;-38
2024/01/28 10:45:06;;;;;;;7.57;3.20;;;3.30;99.90;;;;;;5077066;28;19920;-37
2024/01/28 10:47:33;;;;;;;6.38;2.95;;;3.40;99.90;;;;;;5077064;28;20101;-37
2024/01/28 10:50:03;;;;;;;6.03;2.72;;;3.50;99.90;;;;;;5076984;28;20056;-36
2024/01/28 10:52:29;;;;;;;8.48;2.97;;;3.70;99.90;;;;;;5076911;28;20048;-36
2024/01/28 10:54:55;;;;;;;6.63;2.70;;;3.80;99.90;;;;;;5076956;28;20377;-36
2024/01/28 10:57:23;;;;;;;5.97;2.63;;;3.90;99.90;;;;;;5075830;28;20048;-36
2024/01/28 10:59:51;;;;;;;7.50;2.58;;;4.00;99.90;;;;;;5076501;28;20484;-36
2024/01/28 11:02:19;;;;;;;6.22;2.97;;;4.00;99.90;;;;;;5076698;28;20044;-36
2024/01/28 11:04:46;;;;;;;8.00;2.70;;;4.10;99.90;;;;;;5076729;28;20036;-36
2024/01/28 11:07:12;;;;;;;5.65;2.75;;;4.20;99.90;;;;;;5076700;28;20059;-36
2024/01/28 11:09:38;;;;;;;7.43;3.03;;;4.30;99.90;;;;;;5076561;28;20044;-36
2024/01/28 11:12:05;;;;;;;8.73;2.50;;;4.30;99.90;;;;;;5076371;28;20502;-36
2024/01/28 11:14:31;;;;;;;7.65;2.55;;;4.40;99.90;;;;;;5076225;28;20049;-36
2024/01/28 11:16:56;;;;;;;6.80;2.47;;;4.50;99.90;;;;;;5075778;28;20123;-36
2024/01/28 11:19:27;;;;;;;6.63;2.40;;;4.50;99.90;;;;;;5076505;28;20508;-36
2024/01/28 11:21:52;;;;;;;4.93;2.40;;;4.60;99.90;;;;;;5076653;28;20040;-36
2024/01/28 11:24:18;;;;;;;6.13;2.83;;;4.70;99.90;;;;;;5076264;28;20046;-48
2024/01/28 11:26:46;;;;;;;8.77;2.37;;;4.70;99.90;;;;;;5075180;28;20048;-53
2024/01/28 11:29:12;;;;;;;7.15;2.33;;;4.70;99.90;;;;;;5076049;28;20491;-52
2024/01/28 11:37:52;;;;;;;6.68;2.25;;;4.90;99.90;;;;;;5130486;24;20088;-47
2024/01/28 11:40:23;;;;;;;5.82;1.98;;;5.00;99.90;;;;;;4808851;29;20062;-45
2024/01/28 11:42:55;;;;;;;7.93;2.47;;;5.10;99.90;;;;;;4807704;29;20119;-45
2024/01/28 11:45:22;;;;;;;6.13;2.20;;;5.10;99.90;;;;;;4809057;29;20058;-46
2024/01/28 11:47:48;;;;;;;7.43;2.20;;;5.20;99.90;;;;;;4807675;29;20055;-40
2024/01/28 11:50:15;;;;;;;4.82;2.13;;;5.20;99.90;;;;;;4808651;29;20058;-41
2024/01/28 11:52:42;;;;;;;9.15;2.17;;;5.30;99.90;;;;;;4808383;29;20129;-42
2024/01/28 11:55:11;;;;;;;5.50;1.88;;;5.30;99.90;;;;;;4808810;29;20058;-40
2024/01/28 11:58:46;;;;;;;7.65;2.17;;;5.40;99.90;;;;;;5091376;28;20164;-58
2024/01/28 12:01:12;;;;;;;8.10;2.07;;;5.40;99.90;;;;;;5091090;28;20074;-57
2024/01/28 12:03:39;;;;;;;5.43;1.63;;;5.50;99.90;;;;;;5091311;28;20048;-58
2024/01/28 12:06:05;;;;;;;5.85;1.73;;;5.50;99.90;;;;;;5091180;28;20047;-58
2024/01/28 12:08:31;;;;;;;4.13;1.80;;;5.50;99.90;;;;;;5091164;28;20040;-57
2024/01/28 12:11:02;;;;;;;5.47;2.17;;;5.60;99.90;;;;;;5090000;28;20128;-58
2024/01/28 12:13:28;;;;;;;5.47;1.65;;;5.60;99.90;;;;;;5090954;28;20098;-58
2024/01/28 12:15:58;;;;;;;4.63;1.43;;;5.70;99.90;;;;;;5091334;28;20052;-58
2024/01/28 12:18:30;;;;;;;5.13;1.83;;;5.70;99.90;;;;;;5090655;28;20491;-58
2024/01/28 12:20:56;;;;;;;6.82;1.63;;;5.70;99.90;;;;;;5091058;28;20109;-57
2024/01/28 12:23:21;;;;;;;5.00;1.70;;;5.80;99.90;;;;;;5090942;28;20414;-58
2024/01/28 12:25:49;;;;;;;7.03;1.90;;;5.80;99.90;;;;;;5090776;28;20079;-58
2024/01/28 12:28:15;;;;;;;5.90;2.03;;;5.80;99.90;;;;;;5090556;28;20074;-58
2024/01/28 12:30:41;;;;;;;5.07;1.93;;;5.80;99.90;;;;;;5090729;28;20417;-57
2024/01/28 12:33:07;;;;;;;4.93;1.90;;;5.90;99.90;;;;;;5089488;28;20048;-57
2024/01/28 12:35:33;;;;;;;4.63;1.25;;;5.90;99.90;;;;;;5090765;28;20047;-58
2024/01/28 12:37:58;;;;;;;7.43;2.30;;;5.90;99.90;;;;;;5090816;28;20048;-58
2024/01/28 12:40:24;;;;;;;6.40;2.07;;;6.00;99.90;;;;;;5090457;28;20036;-58
2024/01/28 12:42:50;;;;;;;5.17;1.57;;;6.00;99.90;;;;;;5090213;28;20044;-57
2024/01/28 12:45:15;;;;;;;4.83;1.53;;;6.10;99.90;;;;;;5090726;28;20048;-58
2024/01/28 12:47:41;;;;;;;4.40;1.60;;;6.10;99.90;;;;;;5090384;28;20123;-58
2024/01/28 12:50:09;;;;;;;4.70;1.43;;;6.10;99.90;;;;;;5090438;28;20390;-58
2024/01/28 12:52:35;;;;;;;6.57;2.20;;;6.20;99.90;;;;;;5090383;28;20203;-58
2024/01/28 12:55:04;;;;;;;5.72;1.80;;;6.20;99.90;;;;;;5089345;28;20131;-58